createdAt,value
2019-01-26T00:02:14.330Z,13.37
2019-01-26T00:04:44.772Z,13.23
2019-01-26T00:07:15.186Z,12.37
2019-01-26T00:09:45.499Z,12.10
2019-01-26T00:12:15.881Z,12.63
2019-01-26T00:14:46.321Z,11.73
2019-01-26T00:17:16.741Z,11.33
2019-01-26T00:19:47.178Z,12.10
2019-01-26T00:22:19.301Z,11.20
2019-01-26T00:24:49.684Z,12.20
2019-01-26T00:27:20.081Z,12.90
2019-01-26T00:29:50.653Z,10.67
2019-01-26T00:32:20.992Z,12.00
2019-01-26T00:34:51.350Z,12.30
2019-01-26T00:37:21.834Z,11.17
2019-01-26T00:39:52.203Z,10.77
2019-01-26T00:42:22.605Z,10.43
2019-01-26T00:44:52.952Z,12.43
2019-01-26T00:47:23.477Z,11.33
2019-01-26T00:49:53.905Z,9.77
2019-01-26T00:52:24.204Z,12.20
2019-01-26T00:54:54.652Z,11.97
2019-01-26T00:57:25.043Z,13.57
2019-01-26T00:59:55.428Z,10.53
2019-01-26T01:02:25.872Z,10.53
2019-01-26T01:04:56.334Z,10.87
2019-01-26T01:07:26.739Z,11.43
2019-01-26T01:09:57.072Z,11.50
2019-01-26T01:12:27.424Z,10.13
2019-01-26T01:14:57.861Z,13.07
2019-01-26T01:17:28.308Z,11.27
2019-01-26T01:19:58.701Z,9.27
2019-01-26T01:22:29.021Z,9.57
2019-01-26T01:24:59.375Z,10.20
2019-01-26T01:27:29.757Z,9.53
2019-01-26T01:30:00.271Z,10.30
2019-01-26T01:32:30.680Z,10.07
2019-01-26T01:35:00.990Z,8.47
2019-01-26T01:37:31.533Z,9.13
2019-01-26T01:40:01.839Z,11.63
2019-01-26T01:42:32.303Z,10.30
2019-01-26T01:45:02.735Z,10.13
2019-01-26T01:47:32.766Z,9.40
2019-01-26T01:50:03.103Z,10.60
2019-01-26T01:52:33.581Z,10.13
2019-01-26T01:55:04.390Z,11.73
2019-01-26T01:57:34.729Z,9.60
2019-01-26T02:00:08.172Z,10.50
2019-01-26T02:02:38.647Z,9.40
2019-01-26T02:05:09.303Z,9.13
2019-01-26T02:07:40.057Z,9.37
2019-01-26T02:10:12.571Z,9.33
2019-01-26T02:12:42.896Z,9.90
2019-01-26T02:15:13.547Z,10.73
2019-01-26T02:17:43.853Z,9.70
2019-01-26T02:20:16.937Z,10.83
2019-01-26T02:22:47.352Z,10.50
2019-01-26T02:25:17.778Z,11.03
2019-01-26T02:27:48.108Z,11.13
2019-01-26T02:30:22.806Z,11.30
2019-01-26T02:32:54.639Z,11.60
2019-01-26T02:35:25.219Z,11.00
2019-01-26T02:37:55.649Z,10.60
2019-01-26T02:40:25.975Z,10.20
2019-01-26T02:42:56.394Z,10.53
2019-01-26T02:45:26.740Z,10.73
2019-01-26T02:47:59.037Z,9.93
2019-01-26T02:50:29.329Z,10.63
2019-01-26T02:52:59.733Z,10.17
2019-01-26T02:55:30.034Z,9.13
2019-01-26T02:58:00.444Z,9.27
2019-01-26T03:00:31.074Z,9.30
2019-01-26T03:03:03.812Z,9.17
2019-01-26T03:05:34.257Z,10.73
2019-01-26T03:08:04.802Z,11.60
2019-01-26T03:10:35.223Z,10.20
2019-01-26T03:13:06.175Z,10.53
2019-01-26T03:15:36.593Z,11.17
2019-01-26T03:18:06.982Z,11.97
2019-01-26T03:20:37.387Z,10.83
2019-01-26T03:23:07.874Z,8.33
2019-01-26T03:25:38.619Z,8.93
2019-01-26T03:28:09.197Z,8.03
2019-01-26T03:30:41.697Z,8.60
2019-01-26T03:33:12.142Z,8.27
2019-01-26T03:35:42.553Z,6.57
2019-01-26T03:38:12.976Z,9.20
2019-01-26T03:40:43.411Z,7.80
2019-01-26T03:43:13.832Z,7.93
2019-01-26T03:45:44.254Z,8.43
2019-01-26T03:48:14.761Z,7.13
2019-01-26T03:50:45.181Z,7.37
2019-01-26T03:53:15.522Z,7.90
2019-01-26T03:55:45.874Z,7.57
2019-01-26T03:58:16.209Z,8.07
2019-01-26T04:00:46.688Z,7.97
2019-01-26T04:03:17.029Z,8.83
2019-01-26T04:05:47.436Z,7.50
2019-01-26T04:08:18.021Z,6.30
2019-01-26T04:10:48.474Z,7.57
2019-01-26T04:13:18.893Z,8.30
2019-01-26T04:15:49.351Z,7.30
2019-01-26T04:18:19.795Z,7.50
2019-01-26T04:20:50.331Z,7.17
2019-01-26T04:23:20.960Z,7.70
2019-01-26T04:25:51.391Z,6.63
2019-01-26T04:28:21.874Z,7.70
2019-01-26T04:30:52.477Z,6.37
2019-01-26T04:33:22.848Z,6.13
2019-01-26T04:35:53.363Z,7.60
2019-01-26T04:38:23.800Z,8.43
2019-01-26T04:40:54.205Z,5.80
2019-01-26T04:43:24.744Z,7.53
2019-01-26T04:45:55.140Z,6.43
2019-01-26T04:48:25.853Z,8.23
2019-01-26T04:50:56.328Z,8.33
2019-01-26T04:53:26.843Z,6.10
2019-01-26T04:55:57.325Z,7.30
2019-01-26T04:58:27.754Z,9.00
2019-01-26T05:00:58.198Z,6.27
2019-01-26T05:03:28.503Z,8.47
2019-01-26T05:05:58.928Z,5.90
2019-01-26T05:08:29.353Z,9.10
2019-01-26T05:10:59.677Z,5.80
2019-01-26T05:13:30.144Z,6.20
2019-01-26T05:16:00.501Z,5.67
2019-01-26T05:18:30.936Z,6.20
2019-01-26T05:21:01.295Z,7.60
2019-01-26T05:23:31.792Z,5.97
2019-01-26T05:26:02.147Z,6.50
2019-01-26T05:28:32.579Z,5.33
2019-01-26T05:31:03.125Z,6.33
2019-01-26T05:33:35.296Z,6.03
2019-01-26T05:36:05.743Z,6.20
2019-01-26T05:38:36.102Z,5.67
2019-01-26T05:41:06.594Z,5.53
2019-01-26T05:43:37.026Z,4.10
2019-01-26T05:46:07.011Z,5.00
2019-01-26T05:48:37.506Z,7.83
2019-01-26T05:51:08.043Z,7.03
2019-01-26T05:53:38.725Z,5.37
2019-01-26T05:56:10.298Z,5.60
2019-01-26T05:58:43.638Z,4.30
2019-01-26T06:01:14.015Z,5.33
2019-01-26T06:03:44.449Z,4.70
2019-01-26T06:06:14.882Z,4.90
2019-01-26T06:08:45.198Z,5.40
2019-01-26T06:11:15.523Z,5.43
2019-01-26T06:13:45.961Z,4.87
2019-01-26T06:16:16.361Z,4.63
2019-01-26T06:18:46.680Z,5.80
2019-01-26T06:21:17.157Z,7.67
2019-01-26T06:23:47.537Z,6.30
2019-01-26T06:26:17.971Z,5.33
2019-01-26T06:28:48.369Z,5.17
2019-01-26T06:31:18.853Z,16.10
2019-01-26T06:33:49.267Z,6.53
2019-01-26T06:36:19.641Z,8.60
2019-01-26T06:38:50.061Z,6.17
2019-01-26T06:41:20.601Z,17.53
2019-01-26T06:43:51.033Z,7.43
2019-01-26T06:46:21.605Z,8.70
2019-01-26T06:48:56.094Z,7.03
2019-01-26T06:51:26.506Z,5.30
2019-01-26T06:53:56.956Z,10.97
2019-01-26T06:56:27.420Z,7.00
2019-01-26T06:58:57.784Z,9.83
2019-01-26T07:01:28.277Z,7.70
2019-01-26T07:03:58.689Z,7.97
2019-01-26T07:06:49.087Z,6.10
2019-01-26T07:09:19.405Z,7.50
2019-01-26T07:11:49.836Z,7.00
2019-01-26T07:14:20.176Z,8.83
2019-01-26T07:16:50.650Z,9.37
2019-01-26T07:19:20.980Z,9.00
2019-01-26T07:21:51.304Z,11.93
2019-01-26T07:24:21.729Z,10.93
2019-01-26T07:26:52.337Z,8.77
2019-01-26T07:29:22.734Z,12.73
2019-01-26T07:31:53.127Z,12.53
2019-01-26T07:34:23.434Z,12.27
2019-01-26T07:36:53.784Z,15.80
2019-01-26T07:39:24.144Z,19.83
2019-01-26T07:41:54.466Z,15.13
2019-01-26T07:44:24.994Z,18.93
2019-01-26T07:46:55.404Z,21.43
2019-01-26T07:49:25.745Z,18.87
2019-01-26T07:51:56.076Z,19.90
2019-01-26T07:54:26.500Z,18.03
2019-01-26T07:56:56.929Z,21.17
2019-01-26T07:59:27.416Z,22.93
2019-01-26T08:01:57.842Z,21.30
2019-01-26T08:04:28.299Z,20.80
2019-01-26T08:06:58.818Z,22.87
2019-01-26T08:09:29.238Z,25.47
2019-01-26T08:11:59.702Z,23.73
2019-01-26T08:14:29.985Z,26.10
2019-01-26T08:17:00.313Z,23.03
2019-01-26T08:19:30.744Z,23.03
2019-01-26T08:22:01.156Z,24.27
2019-01-26T08:24:31.538Z,22.00
2019-01-26T08:27:01.889Z,21.83
2019-01-26T08:29:32.277Z,22.23
2019-01-26T08:32:08.327Z,26.90
2019-01-26T08:34:44.048Z,20.33
2019-01-26T08:37:14.108Z,21.93
2019-01-26T08:39:44.586Z,23.90
2019-01-26T08:42:15.153Z,22.37
2019-01-26T08:44:45.600Z,20.53
2019-01-26T08:47:16.105Z,16.30
2019-01-26T08:49:46.513Z,16.37
2019-01-26T08:52:16.828Z,17.37
2019-01-26T08:54:47.276Z,16.67
2019-01-26T08:57:17.594Z,15.17
2019-01-26T08:59:49.188Z,15.03
2019-01-26T09:02:42.657Z,15.43
2019-01-26T09:05:15.541Z,13.47
2019-01-26T09:07:47.029Z,11.47
2019-01-26T09:10:19.047Z,13.33
2019-01-26T09:12:52.074Z,13.23
2019-01-26T09:15:24.394Z,11.73
2019-01-26T09:17:59.713Z,10.60
2019-01-26T09:20:31.591Z,10.27
2019-01-26T09:23:02.876Z,12.37
2019-01-26T09:25:34.985Z,10.93
2019-01-26T09:28:07.299Z,10.87
2019-01-26T09:30:40.464Z,8.87
2019-01-26T09:33:12.684Z,10.13
2019-01-26T09:35:44.817Z,10.13
2019-01-26T09:38:16.555Z,10.70
2019-01-26T09:40:48.102Z,10.47
2019-01-26T09:43:20.641Z,10.83
2019-01-26T09:45:52.748Z,10.10
2019-01-26T09:48:24.865Z,9.40
2019-01-26T09:50:56.227Z,11.00
2019-01-26T09:53:27.963Z,8.00
2019-01-26T09:55:59.306Z,7.43
2019-01-26T09:58:30.545Z,6.70
2019-01-26T10:01:04.264Z,7.10
2019-01-26T10:03:35.997Z,5.40
2019-01-26T10:06:07.384Z,7.57
2019-01-26T10:08:42.018Z,5.87
2019-01-26T10:11:14.158Z,5.63
2019-01-26T10:13:45.605Z,4.73
2019-01-26T10:16:20.126Z,5.57
2019-01-26T10:18:53.771Z,6.10
2019-01-26T10:21:24.690Z,4.60
2019-01-26T10:23:55.177Z,4.50
2019-01-26T10:26:25.625Z,4.97
2019-01-26T10:28:55.985Z,4.37
2019-01-26T10:31:26.372Z,5.00
2019-01-26T10:33:56.710Z,5.93
2019-01-26T10:36:42.947Z,6.03
2019-01-26T10:39:18.020Z,5.33
2019-01-26T10:41:54.783Z,7.43
2019-01-26T10:44:29.727Z,6.50
2019-01-26T10:47:00.175Z,6.17
2019-01-26T10:49:30.757Z,5.83
2019-01-26T10:52:01.186Z,4.57
2019-01-26T10:54:31.620Z,5.33
2019-01-26T10:57:02.024Z,5.53
2019-01-26T10:59:32.531Z,5.83
2019-01-26T11:02:02.991Z,4.63
2019-01-26T11:04:33.440Z,4.87
2019-01-26T11:07:04.080Z,5.97
2019-01-26T11:09:34.576Z,4.00
2019-01-26T11:12:05.203Z,4.00
2019-01-26T11:14:35.664Z,5.73
2019-01-26T11:17:06.103Z,4.30
2019-01-26T11:19:36.517Z,3.33
2019-01-26T11:22:07.056Z,3.73
2019-01-26T11:24:37.480Z,4.77
2019-01-26T11:27:07.893Z,5.10
2019-01-26T11:29:38.745Z,7.67
2019-01-26T11:32:09.073Z,4.87
2019-01-26T11:34:39.773Z,4.73
2019-01-26T11:37:10.178Z,3.73
2019-01-26T11:39:42.853Z,4.67
2019-01-26T11:42:13.268Z,4.63
2019-01-26T11:45:03.799Z,3.57
2019-01-26T11:47:34.232Z,4.53
2019-01-26T11:50:06.031Z,4.07
2019-01-26T11:52:36.460Z,3.97
2019-01-26T11:55:16.677Z,3.60
2019-01-26T11:57:46.979Z,3.60
2019-01-26T12:00:44.749Z,3.93
2019-01-26T12:03:25.869Z,3.83
2019-01-26T12:06:04.242Z,6.10
2019-01-26T12:08:34.779Z,3.07
2019-01-26T12:11:05.304Z,3.40
2019-01-26T12:13:36.105Z,4.50
2019-01-26T12:16:06.547Z,3.43
2019-01-26T12:18:36.947Z,3.43
2019-01-26T12:21:07.995Z,4.33
2019-01-26T12:23:39.544Z,2.87
2019-01-26T12:26:11.105Z,3.17
2019-01-26T12:28:43.228Z,3.50
2019-01-26T12:31:14.691Z,2.50
2019-01-26T12:33:45.304Z,2.80
2019-01-26T12:36:15.661Z,2.50
2019-01-26T12:38:46.196Z,3.07
2019-01-26T12:41:18.405Z,2.63
2019-01-26T12:43:48.740Z,2.20
2019-01-26T12:46:19.086Z,1.73
2019-01-26T12:48:49.469Z,2.30
2019-01-26T12:51:19.976Z,1.93
2019-01-26T12:53:50.315Z,1.87
2019-01-26T12:56:20.742Z,1.57
2019-01-26T12:58:51.455Z,2.23
2019-01-26T13:01:21.796Z,2.20
2019-01-26T13:03:52.822Z,1.73
2019-01-26T13:06:23.440Z,2.10
2019-01-26T13:08:53.915Z,1.80
2019-01-26T13:11:27.514Z,2.43
2019-01-26T13:13:57.972Z,1.60
2019-01-26T13:16:28.464Z,1.53
2019-01-26T13:18:58.839Z,1.47
2019-01-26T13:21:29.299Z,1.60
2019-01-26T13:23:59.644Z,1.33
2019-01-26T13:26:30.231Z,2.20
2019-01-26T13:29:01.730Z,2.10
2019-01-26T13:31:32.139Z,2.40
2019-01-26T13:34:02.575Z,1.67
2019-01-26T13:36:32.992Z,2.37
2019-01-26T13:39:05.585Z,2.23
2019-01-26T13:41:36.008Z,2.63
2019-01-26T13:44:06.447Z,3.77
2019-01-26T13:46:36.874Z,3.67
2019-01-26T13:49:07.245Z,4.60
2019-01-26T13:51:37.946Z,4.50
2019-01-26T13:54:08.442Z,3.07
2019-01-26T13:56:41.254Z,3.83
2019-01-26T13:59:11.684Z,5.07
2019-01-26T14:01:42.255Z,5.17
2019-01-26T14:04:12.715Z,4.23
2019-01-26T14:06:43.060Z,5.63
2019-01-26T14:09:13.494Z,7.27
2019-01-26T14:11:47.651Z,7.67
2019-01-26T14:14:18.176Z,9.00
2019-01-26T14:16:48.247Z,9.23
2019-01-26T14:19:18.588Z,9.07
2019-01-26T14:21:48.919Z,9.30
2019-01-26T14:24:19.358Z,9.33
2019-01-26T14:26:50.024Z,9.63
2019-01-26T14:29:20.555Z,11.87
2019-01-26T14:31:50.933Z,9.67
2019-01-26T14:34:21.282Z,7.87
2019-01-26T14:36:51.625Z,11.40
2019-01-26T14:39:22.065Z,9.50
2019-01-26T14:41:52.425Z,8.97
2019-01-26T14:44:22.861Z,9.37
2019-01-26T14:46:53.173Z,10.53
2019-01-26T14:49:23.629Z,10.03
2019-01-26T14:51:54.001Z,8.77
2019-01-26T14:54:24.429Z,9.13
2019-01-26T14:56:55.148Z,9.70
2019-01-26T14:59:25.643Z,9.63
2019-01-26T15:01:56.084Z,10.50
2019-01-26T15:04:26.512Z,9.73
2019-01-26T15:06:56.899Z,10.60
2019-01-26T15:09:27.385Z,11.63
2019-01-26T15:11:58.898Z,11.93
2019-01-26T15:14:29.264Z,13.77
2019-01-26T15:16:59.670Z,11.27
2019-01-26T15:19:30.064Z,10.70
2019-01-26T15:22:00.445Z,9.73
2019-01-26T15:24:30.861Z,7.67
2019-01-26T15:27:01.188Z,10.83
2019-01-26T15:29:31.531Z,8.03
2019-01-26T15:32:01.912Z,8.60
2019-01-26T15:34:32.289Z,11.30
2019-01-26T15:37:02.826Z,11.87
2019-01-26T15:39:33.268Z,14.83
2019-01-26T15:42:04.757Z,10.80
2019-01-26T15:44:35.116Z,11.70
2019-01-26T15:47:05.630Z,10.83
2019-01-26T15:49:36.033Z,11.57
2019-01-26T15:52:06.402Z,11.27
2019-01-26T15:54:36.849Z,15.27
2019-01-26T15:57:07.292Z,12.00
2019-01-26T15:59:37.845Z,13.33
2019-01-26T16:02:08.305Z,12.10
2019-01-26T16:04:40.217Z,12.37
2019-01-26T16:07:10.552Z,12.83
2019-01-26T16:09:41.032Z,11.50
2019-01-26T16:12:11.401Z,9.73
2019-01-26T16:14:41.861Z,10.63
2019-01-26T16:17:12.221Z,8.03
2019-01-26T16:19:42.527Z,7.63
2019-01-26T16:22:12.929Z,7.27
2019-01-26T16:24:43.228Z,7.30
2019-01-26T16:27:13.583Z,7.20
2019-01-26T16:29:44.984Z,7.00
2019-01-26T16:32:15.390Z,6.07
2019-01-26T16:34:46.447Z,6.23
2019-01-26T16:37:16.793Z,6.80
2019-01-26T16:39:47.168Z,5.10
2019-01-26T16:42:17.663Z,7.13
2019-01-26T16:44:48.057Z,7.73
2019-01-26T16:47:18.376Z,4.97
2019-01-26T16:49:48.692Z,8.57
2019-01-26T16:52:19.135Z,6.27
2019-01-26T16:54:49.453Z,7.40
2019-01-26T16:57:19.839Z,6.23
2019-01-26T16:59:50.126Z,6.03
2019-01-26T17:02:20.631Z,7.43
2019-01-26T17:04:50.965Z,8.63
2019-01-26T17:07:21.392Z,8.80
2019-01-26T17:09:51.771Z,6.13
2019-01-26T17:12:22.209Z,6.57
2019-01-26T17:14:52.537Z,7.30
2019-01-26T17:17:22.966Z,7.13
2019-01-26T17:19:53.315Z,6.93
2019-01-26T17:22:23.640Z,7.77
2019-01-26T17:24:54.069Z,7.47
2019-01-26T17:27:24.407Z,6.50
2019-01-26T17:29:54.808Z,7.73
2019-01-26T17:32:26.981Z,8.00
2019-01-26T17:34:57.312Z,7.30
2019-01-26T17:37:27.655Z,6.57
2019-01-26T17:39:58.050Z,8.07
2019-01-26T17:42:28.584Z,8.67
2019-01-26T17:44:59.000Z,6.90
2019-01-26T17:47:29.443Z,9.43
2019-01-26T17:49:59.792Z,6.90
2019-01-26T17:52:30.119Z,7.70
2019-01-26T17:55:00.505Z,7.80
2019-01-26T17:57:30.912Z,8.10
2019-01-26T18:00:01.345Z,10.80
2019-01-26T18:02:31.712Z,8.27
2019-01-26T18:05:02.048Z,9.10
2019-01-26T18:07:32.362Z,8.27
2019-01-26T18:10:02.794Z,9.07
2019-01-26T18:12:33.189Z,8.60
2019-01-26T18:15:03.524Z,9.13
2019-01-26T18:17:33.857Z,8.67
2019-01-26T18:20:04.513Z,9.67
2019-01-26T18:22:34.949Z,10.37
2019-01-26T18:25:06.140Z,11.13
2019-01-26T18:27:36.592Z,10.03
2019-01-26T18:30:07.988Z,10.90
2019-01-26T18:32:38.635Z,9.67
2019-01-26T18:35:10.574Z,8.60
2019-01-26T18:37:41.280Z,10.67
2019-01-26T18:40:16.206Z,10.43
2019-01-26T18:42:46.615Z,9.47
2019-01-26T18:45:18.603Z,10.67
2019-01-26T18:47:49.054Z,9.63
2019-01-26T18:50:21.914Z,7.00
2019-01-26T18:52:52.340Z,8.27
2019-01-26T18:55:22.892Z,10.63
2019-01-26T18:57:53.280Z,9.23
2019-01-26T19:00:27.514Z,8.70
2019-01-26T19:03:05.178Z,9.57
2019-01-26T19:05:35.757Z,10.03
2019-01-26T19:08:06.507Z,7.70
2019-01-26T19:10:36.860Z,7.93
2019-01-26T19:13:07.157Z,9.43
2019-01-26T19:15:37.615Z,8.17
2019-01-26T19:18:08.122Z,9.00
2019-01-26T19:20:39.186Z,7.23
2019-01-26T19:23:09.897Z,8.17
2019-01-26T19:25:41.023Z,9.20
2019-01-26T19:28:11.457Z,25.13
2019-01-26T19:30:41.912Z,49.47
2019-01-26T19:33:12.314Z,120.73
2019-01-26T19:35:43.939Z,17.27
2019-01-26T19:38:14.336Z,10.80
2019-01-26T19:40:44.749Z,9.80
2019-01-26T19:43:15.224Z,8.03
2019-01-26T19:45:45.529Z,7.70
2019-01-26T19:48:16.029Z,7.63
2019-01-26T19:50:46.542Z,9.23
2019-01-26T19:53:16.986Z,8.17
2019-01-26T19:55:47.343Z,8.70
2019-01-26T19:58:17.720Z,8.00
2019-01-26T20:00:48.185Z,8.30
2019-01-26T20:03:18.661Z,8.50
2019-01-26T20:05:49.117Z,9.40
2019-01-26T20:08:19.537Z,7.77
2019-01-26T20:10:49.865Z,7.73
2019-01-26T20:13:20.497Z,9.07
2019-01-26T20:15:50.912Z,9.03
2019-01-26T20:18:21.341Z,8.30
2019-01-26T20:20:51.668Z,7.97
2019-01-26T20:23:22.161Z,8.30
2019-01-26T20:25:52.617Z,8.13
2019-01-26T20:28:23.290Z,7.80
2019-01-26T20:30:53.766Z,9.10
2019-01-26T20:33:24.187Z,7.13
2019-01-26T20:35:55.300Z,7.40
2019-01-26T20:38:25.681Z,7.33
2019-01-26T20:40:56.250Z,8.40
2019-01-26T20:43:26.556Z,11.43
2019-01-26T20:45:56.944Z,7.43
2019-01-26T20:48:27.493Z,6.77
2019-01-26T20:50:57.890Z,6.70
2019-01-26T20:53:28.326Z,6.97
2019-01-26T20:55:58.818Z,7.30
2019-01-26T20:58:29.304Z,6.97
2019-01-26T21:00:59.737Z,7.90
2019-01-26T21:03:30.129Z,7.43
2019-01-26T21:06:00.583Z,6.13
2019-01-26T21:08:31.069Z,6.67
2019-01-26T21:11:02.647Z,6.67
2019-01-26T21:13:33.439Z,7.63
2019-01-26T21:16:03.886Z,6.33
2019-01-26T21:18:36.044Z,6.33
2019-01-26T21:21:06.425Z,6.60
2019-01-26T21:23:36.911Z,8.03
2019-01-26T21:26:07.375Z,9.43
2019-01-26T21:28:38.195Z,6.10
2019-01-26T21:31:08.675Z,6.97
2019-01-26T21:33:39.451Z,7.33
2019-01-26T21:36:09.878Z,7.57
2019-01-26T21:38:41.277Z,8.23
2019-01-26T21:41:11.689Z,7.77
2019-01-26T21:43:42.217Z,8.20
2019-01-26T21:46:12.597Z,8.77
2019-01-26T21:48:43.138Z,8.07
2019-01-26T21:51:13.581Z,8.00
2019-01-26T21:53:44.013Z,8.60
2019-01-26T21:56:14.356Z,7.23
2019-01-26T21:58:44.743Z,7.10
2019-01-26T22:01:15.259Z,8.80
2019-01-26T22:03:46.334Z,9.73
2019-01-26T22:06:16.807Z,8.53
2019-01-26T22:08:47.272Z,9.37
2019-01-26T22:11:17.741Z,10.53
2019-01-26T22:13:48.207Z,8.93
2019-01-26T22:16:18.762Z,9.07
2019-01-26T22:18:49.179Z,8.83
2019-01-26T22:21:19.644Z,9.57
2019-01-26T22:23:50.204Z,8.70
2019-01-26T22:26:20.624Z,7.47
2019-01-26T22:28:51.046Z,9.97
2019-01-26T22:31:21.395Z,9.47
2019-01-26T22:33:51.825Z,10.30
2019-01-26T22:36:22.267Z,8.63
2019-01-26T22:38:52.705Z,9.87
2019-01-26T22:41:23.180Z,8.37
2019-01-26T22:43:53.710Z,9.17
2019-01-26T22:46:24.129Z,9.20
2019-01-26T22:48:54.494Z,8.97
2019-01-26T22:51:24.852Z,8.90
2019-01-26T22:53:55.287Z,8.03
2019-01-26T22:56:26.737Z,10.13
2019-01-26T22:58:57.009Z,11.10
2019-01-26T23:01:36.167Z,7.77
2019-01-26T23:04:38.128Z,8.40
2019-01-26T23:07:41.714Z,9.60
2019-01-26T23:10:56.854Z,7.87
2019-01-26T23:13:51.683Z,8.70
2019-01-26T23:17:05.614Z,8.30
2019-01-26T23:19:42.098Z,8.67
2019-01-26T23:22:47.794Z,6.77
2019-01-26T23:25:42.967Z,8.37
2019-01-26T23:28:54.450Z,7.20
2019-01-26T23:31:24.776Z,8.47
2019-01-26T23:33:56.586Z,7.80
2019-01-26T23:36:27.099Z,9.77
2019-01-26T23:39:02.307Z,7.83
2019-01-26T23:41:29.697Z,8.80
2019-01-26T23:44:00.038Z,7.77
2019-01-26T23:46:30.420Z,8.83
2019-01-26T23:49:00.918Z,9.47
2019-01-26T23:51:32.356Z,7.93
2019-01-26T23:54:04.125Z,10.27
2019-01-26T23:56:34.652Z,9.60
2019-01-26T23:59:05.289Z,9.07
